Terminal Aerodrome Forecast
Issued by NWS Portland, OR

Home | Current Version | Previous Version | Text Only | Print | Product List | Glossary On
Versions: 1 2 3 4 5 6 7 8 9 10 11 12 13 14 15 16 17 18 19 20 21
000
FTUS46 KPQR 240537
TAFEUG
TAF
KEUG 240537Z 2406/2506 03007KT P6SM SKC
     FM240900 VRB03KT P6SM SKC
     FM241500 02007KT P6SM SCT020
     FM242000 01012G18KT P6SM SKC=

USA.gov is the U.S. government's official web portal to all federal, state and local government web resources and services.